sensor_id;sensor_type;location;lat;lon;timestamp;P1;durP1;ratioP1;P2;durP2;ratioP2
38611;SDS011;24368;52.156;20.788;2023-03-15T00:03:36;8.90;;;7.20;;
38611;SDS011;24368;52.156;20.788;2023-03-15T00:08:38;7.40;;;6.60;;
38611;SDS011;24368;52.156;20.788;2023-03-15T00:13:39;8.50;;;6.80;;
38611;SDS011;24368;52.156;20.788;2023-03-15T00:18:41;7.60;;;5.60;;
38611;SDS011;24368;52.156;20.788;2023-03-15T00:23:43;8.80;;;7.90;;
38611;SDS011;24368;52.156;20.788;2023-03-15T00:28:45;5.20;;;4.80;;
38611;SDS011;24368;52.156;20.788;2023-03-15T00:33:47;2.20;;;2.00;;
38611;SDS011;24368;52.156;20.788;2023-03-15T00:38:49;1.50;;;1.30;;
38611;SDS011;24368;52.156;20.788;2023-03-15T00:43:56;0.90;;;0.90;;
38611;SDS011;24368;52.156;20.788;2023-03-15T00:48:58;0.70;;;0.70;;
38611;SDS011;24368;52.156;20.788;2023-03-15T00:53:59;1.70;;;0.80;;
38611;SDS011;24368;52.156;20.788;2023-03-15T00:59:01;0.80;;;0.40;;
38611;SDS011;24368;52.156;20.788;2023-03-15T01:04:03;0.70;;;0.40;;
38611;SDS011;24368;52.156;20.788;2023-03-15T01:09:04;1.00;;;0.40;;
38611;SDS011;24368;52.156;20.788;2023-03-15T01:14:07;1.50;;;0.50;;
38611;SDS011;24368;52.156;20.788;2023-03-15T01:19:13;0.50;;;0.40;;
38611;SDS011;24368;52.156;20.788;2023-03-15T01:24:15;0.50;;;0.40;;
38611;SDS011;24368;52.156;20.788;2023-03-15T01:29:17;1.00;;;0.40;;
38611;SDS011;24368;52.156;20.788;2023-03-15T01:34:18;0.70;;;0.40;;
38611;SDS011;24368;52.156;20.788;2023-03-15T01:39:21;1.10;;;0.60;;
38611;SDS011;24368;52.156;20.788;2023-03-15T01:44:23;0.70;;;0.60;;
38611;SDS011;24368;52.156;20.788;2023-03-15T01:49:45;0.90;;;0.50;;
38611;SDS011;24368;52.156;20.788;2023-03-15T01:54:53;0.50;;;0.50;;
38611;SDS011;24368;52.156;20.788;2023-03-15T02:00:02;1.50;;;0.60;;
38611;SDS011;24368;52.156;20.788;2023-03-15T02:05:13;1.60;;;0.60;;
38611;SDS011;24368;52.156;20.788;2023-03-15T02:10:30;1.20;;;0.70;;
38611;SDS011;24368;52.156;20.788;2023-03-15T02:15:37;0.50;;;0.50;;
38611;SDS011;24368;52.156;20.788;2023-03-15T02:20:41;1.20;;;0.70;;
38611;SDS011;24368;52.156;20.788;2023-03-15T02:30:50;1.90;;;0.90;;
38611;SDS011;24368;52.156;20.788;2023-03-15T02:35:52;3.90;;;0.50;;
38611;SDS011;24368;52.156;20.788;2023-03-15T02:40:54;2.80;;;0.90;;
38611;SDS011;24368;52.156;20.788;2023-03-15T02:45:56;1.70;;;0.60;;
38611;SDS011;24368;52.156;20.788;2023-03-15T02:50:59;0.90;;;0.60;;
38611;SDS011;24368;52.156;20.788;2023-03-15T02:56:03;2.00;;;0.70;;
38611;SDS011;24368;52.156;20.788;2023-03-15T03:01:05;2.50;;;0.80;;
38611;SDS011;24368;52.156;20.788;2023-03-15T03:06:08;1.00;;;0.60;;
38611;SDS011;24368;52.156;20.788;2023-03-15T03:11:12;1.30;;;1.00;;
38611;SDS011;24368;52.156;20.788;2023-03-15T03:16:15;1.90;;;0.90;;
38611;SDS011;24368;52.156;20.788;2023-03-15T03:21:17;2.20;;;1.30;;
38611;SDS011;24368;52.156;20.788;2023-03-15T03:26:19;2.70;;;1.40;;
38611;SDS011;24368;52.156;20.788;2023-03-15T03:31:21;3.20;;;1.40;;
38611;SDS011;24368;52.156;20.788;2023-03-15T03:36:25;4.50;;;1.40;;
38611;SDS011;24368;52.156;20.788;2023-03-15T03:41:27;2.00;;;1.60;;
38611;SDS011;24368;52.156;20.788;2023-03-15T03:46:29;1.90;;;1.50;;
38611;SDS011;24368;52.156;20.788;2023-03-15T03:51:30;2.20;;;2.00;;
38611;SDS011;24368;52.156;20.788;2023-03-15T03:56:34;4.30;;;2.50;;
38611;SDS011;24368;52.156;20.788;2023-03-15T04:01:36;4.80;;;3.00;;
38611;SDS011;24368;52.156;20.788;2023-03-15T04:06:37;4.40;;;3.30;;
38611;SDS011;24368;52.156;20.788;2023-03-15T04:11:46;8.30;;;4.10;;
38611;SDS011;24368;52.156;20.788;2023-03-15T04:16:48;6.20;;;3.90;;
38611;SDS011;24368;52.156;20.788;2023-03-15T04:21:49;7.10;;;4.00;;
38611;SDS011;24368;52.156;20.788;2023-03-15T04:26:53;5.70;;;4.30;;
38611;SDS011;24368;52.156;20.788;2023-03-15T04:31:58;5.90;;;3.70;;
38611;SDS011;24368;52.156;20.788;2023-03-15T04:37:02;5.70;;;4.00;;
38611;SDS011;24368;52.156;20.788;2023-03-15T04:42:03;7.00;;;4.50;;
38611;SDS011;24368;52.156;20.788;2023-03-15T04:47:05;4.10;;;2.60;;
38611;SDS011;24368;52.156;20.788;2023-03-15T04:52:07;3.60;;;3.20;;
38611;SDS011;24368;52.156;20.788;2023-03-15T04:57:09;5.50;;;3.50;;
38611;SDS011;24368;52.156;20.788;2023-03-15T05:02:11;8.60;;;3.60;;
38611;SDS011;24368;52.156;20.788;2023-03-15T05:07:13;3.90;;;2.80;;
38611;SDS011;24368;52.156;20.788;2023-03-15T05:12:15;8.30;;;4.40;;
38611;SDS011;24368;52.156;20.788;2023-03-15T05:17:17;6.70;;;4.30;;
38611;SDS011;24368;52.156;20.788;2023-03-15T05:22:20;7.00;;;4.40;;
38611;SDS011;24368;52.156;20.788;2023-03-15T05:27:25;4.70;;;3.80;;
38611;SDS011;24368;52.156;20.788;2023-03-15T05:32:29;9.20;;;4.60;;
38611;SDS011;24368;52.156;20.788;2023-03-15T05:37:34;8.10;;;4.00;;
38611;SDS011;24368;52.156;20.788;2023-03-15T05:42:36;8.20;;;4.30;;
38611;SDS011;24368;52.156;20.788;2023-03-15T05:47:38;6.60;;;4.40;;
38611;SDS011;24368;52.156;20.788;2023-03-15T05:52:39;7.00;;;4.60;;
38611;SDS011;24368;52.156;20.788;2023-03-15T05:57:42;8.50;;;5.20;;
38611;SDS011;24368;52.156;20.788;2023-03-15T06:02:44;10.50;;;4.70;;
38611;SDS011;24368;52.156;20.788;2023-03-15T06:07:47;7.80;;;5.10;;
38611;SDS011;24368;52.156;20.788;2023-03-15T06:12:49;8.20;;;4.60;;
38611;SDS011;24368;52.156;20.788;2023-03-15T06:17:52;6.60;;;4.60;;
38611;SDS011;24368;52.156;20.788;2023-03-15T06:22:54;11.40;;;5.80;;
38611;SDS011;24368;52.156;20.788;2023-03-15T06:27:56;7.80;;;5.00;;
38611;SDS011;24368;52.156;20.788;2023-03-15T06:32:57;5.60;;;4.80;;
38611;SDS011;24368;52.156;20.788;2023-03-15T06:37:59;8.50;;;5.90;;
38611;SDS011;24368;52.156;20.788;2023-03-15T06:43:01;4.90;;;3.90;;
38611;SDS011;24368;52.156;20.788;2023-03-15T06:48:06;8.40;;;5.60;;
38611;SDS011;24368;52.156;20.788;2023-03-15T06:53:08;8.30;;;4.60;;
38611;SDS011;24368;52.156;20.788;2023-03-15T06:58:10;5.20;;;3.60;;
38611;SDS011;24368;52.156;20.788;2023-03-15T07:03:12;9.20;;;4.40;;
38611;SDS011;24368;52.156;20.788;2023-03-15T07:08:14;8.90;;;5.00;;
38611;SDS011;24368;52.156;20.788;2023-03-15T07:13:16;8.50;;;4.60;;
38611;SDS011;24368;52.156;20.788;2023-03-15T07:18:19;7.80;;;4.40;;
38611;SDS011;24368;52.156;20.788;2023-03-15T07:23:21;9.10;;;4.60;;
38611;SDS011;24368;52.156;20.788;2023-03-15T07:28:23;9.50;;;5.10;;
38611;SDS011;24368;52.156;20.788;2023-03-15T07:33:27;7.40;;;3.60;;
38611;SDS011;24368;52.156;20.788;2023-03-15T07:38:30;11.30;;;4.50;;
38611;SDS011;24368;52.156;20.788;2023-03-15T07:43:32;6.10;;;3.30;;
38611;SDS011;24368;52.156;20.788;2023-03-15T07:48:35;7.20;;;3.60;;
38611;SDS011;24368;52.156;20.788;2023-03-15T07:53:37;7.00;;;3.60;;
38611;SDS011;24368;52.156;20.788;2023-03-15T07:58:38;8.10;;;4.50;;
38611;SDS011;24368;52.156;20.788;2023-03-15T08:03:40;9.30;;;4.10;;
38611;SDS011;24368;52.156;20.788;2023-03-15T08:08:42;7.40;;;4.20;;
38611;SDS011;24368;52.156;20.788;2023-03-15T08:13:44;5.70;;;3.60;;
38611;SDS011;24368;52.156;20.788;2023-03-15T08:18:45;5.20;;;3.10;;
38611;SDS011;24368;52.156;20.788;2023-03-15T08:23:47;8.20;;;3.80;;
38611;SDS011;24368;52.156;20.788;2023-03-15T08:28:49;7.20;;;4.70;;
38611;SDS011;24368;52.156;20.788;2023-03-15T08:33:51;4.80;;;3.60;;
38611;SDS011;24368;52.156;20.788;2023-03-15T08:38:52;6.20;;;2.90;;
38611;SDS011;24368;52.156;20.788;2023-03-15T08:43:54;4.20;;;3.40;;
38611;SDS011;24368;52.156;20.788;2023-03-15T08:48:56;6.30;;;4.20;;
38611;SDS011;24368;52.156;20.788;2023-03-15T08:53:58;9.70;;;4.40;;
38611;SDS011;24368;52.156;20.788;2023-03-15T08:58:59;5.80;;;3.20;;
38611;SDS011;24368;52.156;20.788;2023-03-15T09:04:01;5.80;;;3.00;;
38611;SDS011;24368;52.156;20.788;2023-03-15T09:09:04;6.10;;;3.40;;
38611;SDS011;24368;52.156;20.788;2023-03-15T09:14:07;6.90;;;3.90;;
38611;SDS011;24368;52.156;20.788;2023-03-15T09:19:08;6.30;;;4.00;;
38611;SDS011;24368;52.156;20.788;2023-03-15T09:24:10;8.70;;;4.10;;
38611;SDS011;24368;52.156;20.788;2023-03-15T09:29:12;7.90;;;4.10;;
38611;SDS011;24368;52.156;20.788;2023-03-15T09:34:14;5.90;;;4.10;;
38611;SDS011;24368;52.156;20.788;2023-03-15T09:39:16;6.20;;;3.40;;
38611;SDS011;24368;52.156;20.788;2023-03-15T09:49:48;7.40;;;4.40;;
38611;SDS011;24368;52.156;20.788;2023-03-15T09:54:57;7.20;;;4.10;;
38611;SDS011;24368;52.156;20.788;2023-03-15T10:00:19;8.00;;;4.40;;
38611;SDS011;24368;52.156;20.788;2023-03-15T10:05:32;7.50;;;3.50;;
38611;SDS011;24368;52.156;20.788;2023-03-15T10:16:10;7.50;;;3.60;;
38611;SDS011;24368;52.156;20.788;2023-03-15T10:21:56;9.20;;;4.10;;
38611;SDS011;24368;52.156;20.788;2023-03-15T10:27:53;8.90;;;3.50;;
38611;SDS011;24368;52.156;20.788;2023-03-15T10:33:36;7.90;;;4.20;;
38611;SDS011;24368;52.156;20.788;2023-03-15T10:38:27;10.80;;;4.80;;
38611;SDS011;24368;52.156;20.788;2023-03-15T10:43:30;10.10;;;5.20;;
38611;SDS011;24368;52.156;20.788;2023-03-15T10:48:39;10.30;;;4.70;;
38611;SDS011;24368;52.156;20.788;2023-03-15T10:53:57;5.80;;;3.10;;
38611;SDS011;24368;52.156;20.788;2023-03-15T10:59:03;8.40;;;3.10;;
38611;SDS011;24368;52.156;20.788;2023-03-15T11:04:24;7.80;;;4.00;;
38611;SDS011;24368;52.156;20.788;2023-03-15T11:09:50;8.80;;;3.70;;
38611;SDS011;24368;52.156;20.788;2023-03-15T11:15:11;9.00;;;4.30;;
38611;SDS011;24368;52.156;20.788;2023-03-15T11:20:34;4.60;;;2.90;;
38611;SDS011;24368;52.156;20.788;2023-03-15T11:25:39;5.40;;;3.10;;
38611;SDS011;24368;52.156;20.788;2023-03-15T11:30:41;6.60;;;3.40;;
38611;SDS011;24368;52.156;20.788;2023-03-15T11:35:44;5.70;;;2.90;;
38611;SDS011;24368;52.156;20.788;2023-03-15T11:40:49;9.70;;;3.40;;
38611;SDS011;24368;52.156;20.788;2023-03-15T11:46:00;8.60;;;3.30;;
38611;SDS011;24368;52.156;20.788;2023-03-15T11:51:06;12.60;;;3.20;;
38611;SDS011;24368;52.156;20.788;2023-03-15T11:56:47;8.60;;;3.40;;
38611;SDS011;24368;52.156;20.788;2023-03-15T12:01:59;4.20;;;3.20;;
38611;SDS011;24368;52.156;20.788;2023-03-15T12:22:31;8.40;;;3.00;;
38611;SDS011;24368;52.156;20.788;2023-03-15T12:27:35;6.80;;;4.00;;
38611;SDS011;24368;52.156;20.788;2023-03-15T12:32:44;6.30;;;3.20;;
38611;SDS011;24368;52.156;20.788;2023-03-15T12:37:51;7.30;;;3.00;;
38611;SDS011;24368;52.156;20.788;2023-03-15T12:52:59;5.40;;;3.10;;
38611;SDS011;24368;52.156;20.788;2023-03-15T13:13:30;6.30;;;3.00;;
38611;SDS011;24368;52.156;20.788;2023-03-15T13:18:51;10.10;;;3.00;;
38611;SDS011;24368;52.156;20.788;2023-03-15T13:24:00;6.80;;;2.80;;
38611;SDS011;24368;52.156;20.788;2023-03-15T13:29:12;5.10;;;2.70;;
38611;SDS011;24368;52.156;20.788;2023-03-15T13:34:19;8.30;;;3.30;;
38611;SDS011;24368;52.156;20.788;2023-03-15T13:39:27;9.10;;;4.00;;
38611;SDS011;24368;52.156;20.788;2023-03-15T13:44:31;5.70;;;2.70;;
38611;SDS011;24368;52.156;20.788;2023-03-15T13:49:36;5.20;;;2.40;;
38611;SDS011;24368;52.156;20.788;2023-03-15T13:54:38;4.10;;;2.80;;
38611;SDS011;24368;52.156;20.788;2023-03-15T13:59:50;4.90;;;2.80;;
38611;SDS011;24368;52.156;20.788;2023-03-15T14:05:14;4.60;;;2.50;;
38611;SDS011;24368;52.156;20.788;2023-03-15T14:10:32;7.60;;;2.60;;
38611;SDS011;24368;52.156;20.788;2023-03-15T14:15:36;6.60;;;2.80;;
38611;SDS011;24368;52.156;20.788;2023-03-15T14:20:45;8.10;;;2.90;;
38611;SDS011;24368;52.156;20.788;2023-03-15T14:25:55;5.50;;;2.90;;
38611;SDS011;24368;52.156;20.788;2023-03-15T14:31:11;9.20;;;2.80;;
38611;SDS011;24368;52.156;20.788;2023-03-15T14:36:33;4.20;;;2.20;;
38611;SDS011;24368;52.156;20.788;2023-03-15T14:41:44;7.40;;;2.10;;
38611;SDS011;24368;52.156;20.788;2023-03-15T14:46:46;5.80;;;3.60;;
38611;SDS011;24368;52.156;20.788;2023-03-15T14:51:51;9.10;;;4.30;;
38611;SDS011;24368;52.156;20.788;2023-03-15T14:57:07;9.00;;;6.10;;
38611;SDS011;24368;52.156;20.788;2023-03-15T15:02:11;10.20;;;6.10;;
38611;SDS011;24368;52.156;20.788;2023-03-15T15:07:17;5.60;;;3.80;;
38611;SDS011;24368;52.156;20.788;2023-03-15T15:12:20;6.80;;;3.70;;
38611;SDS011;24368;52.156;20.788;2023-03-15T15:17:22;7.80;;;4.90;;
38611;SDS011;24368;52.156;20.788;2023-03-15T15:22:24;6.00;;;3.60;;
38611;SDS011;24368;52.156;20.788;2023-03-15T15:27:26;7.40;;;4.60;;
38611;SDS011;24368;52.156;20.788;2023-03-15T15:32:27;8.00;;;5.00;;
38611;SDS011;24368;52.156;20.788;2023-03-15T15:37:29;8.70;;;5.30;;
38611;SDS011;24368;52.156;20.788;2023-03-15T15:42:31;6.80;;;4.20;;
38611;SDS011;24368;52.156;20.788;2023-03-15T15:47:53;5.80;;;4.30;;
38611;SDS011;24368;52.156;20.788;2023-03-15T15:52:58;9.50;;;4.70;;
38611;SDS011;24368;52.156;20.788;2023-03-15T15:58:02;7.70;;;4.80;;
38611;SDS011;24368;52.156;20.788;2023-03-15T16:03:15;11.80;;;5.70;;
38611;SDS011;24368;52.156;20.788;2023-03-15T16:08:20;7.30;;;4.90;;
38611;SDS011;24368;52.156;20.788;2023-03-15T16:13:25;8.10;;;5.10;;
38611;SDS011;24368;52.156;20.788;2023-03-15T16:18:27;8.80;;;5.40;;
38611;SDS011;24368;52.156;20.788;2023-03-15T16:23:29;10.10;;;5.10;;
38611;SDS011;24368;52.156;20.788;2023-03-15T16:28:31;10.20;;;4.80;;
38611;SDS011;24368;52.156;20.788;2023-03-15T16:33:39;7.10;;;5.00;;
38611;SDS011;24368;52.156;20.788;2023-03-15T16:38:41;6.30;;;4.50;;
38611;SDS011;24368;52.156;20.788;2023-03-15T16:43:43;7.70;;;4.50;;
38611;SDS011;24368;52.156;20.788;2023-03-15T16:48:45;9.80;;;4.40;;
38611;SDS011;24368;52.156;20.788;2023-03-15T16:53:48;9.00;;;4.50;;
38611;SDS011;24368;52.156;20.788;2023-03-15T16:58:50;9.30;;;4.20;;
38611;SDS011;24368;52.156;20.788;2023-03-15T17:03:54;7.80;;;5.10;;
38611;SDS011;24368;52.156;20.788;2023-03-15T17:09:00;9.00;;;5.20;;
38611;SDS011;24368;52.156;20.788;2023-03-15T17:14:05;8.20;;;4.70;;
38611;SDS011;24368;52.156;20.788;2023-03-15T17:19:13;7.60;;;5.30;;
38611;SDS011;24368;52.156;20.788;2023-03-15T17:24:20;14.20;;;7.00;;
38611;SDS011;24368;52.156;20.788;2023-03-15T17:29:22;9.40;;;6.00;;
38611;SDS011;24368;52.156;20.788;2023-03-15T17:34:24;9.30;;;5.50;;
38611;SDS011;24368;52.156;20.788;2023-03-15T17:39:27;12.90;;;5.30;;
38611;SDS011;24368;52.156;20.788;2023-03-15T17:44:30;9.40;;;4.50;;
38611;SDS011;24368;52.156;20.788;2023-03-15T17:49:35;9.40;;;4.90;;
38611;SDS011;24368;52.156;20.788;2023-03-15T17:54:38;5.80;;;4.90;;
38611;SDS011;24368;52.156;20.788;2023-03-15T17:59:41;11.10;;;6.60;;
38611;SDS011;24368;52.156;20.788;2023-03-15T18:04:43;11.90;;;8.00;;
38611;SDS011;24368;52.156;20.788;2023-03-15T18:09:44;13.40;;;9.20;;
38611;SDS011;24368;52.156;20.788;2023-03-15T18:14:46;11.90;;;9.00;;
38611;SDS011;24368;52.156;20.788;2023-03-15T18:19:49;17.70;;;10.70;;
38611;SDS011;24368;52.156;20.788;2023-03-15T18:24:51;14.40;;;11.20;;
38611;SDS011;24368;52.156;20.788;2023-03-15T18:29:53;16.80;;;9.80;;
38611;SDS011;24368;52.156;20.788;2023-03-15T18:34:55;17.90;;;12.90;;
38611;SDS011;24368;52.156;20.788;2023-03-15T18:39:57;18.10;;;13.50;;
38611;SDS011;24368;52.156;20.788;2023-03-15T18:44:59;18.50;;;12.50;;
38611;SDS011;24368;52.156;20.788;2023-03-15T18:50:01;17.00;;;13.00;;
38611;SDS011;24368;52.156;20.788;2023-03-15T18:55:05;17.20;;;12.30;;
38611;SDS011;24368;52.156;20.788;2023-03-15T19:00:09;19.20;;;11.80;;
38611;SDS011;24368;52.156;20.788;2023-03-15T19:05:34;16.80;;;11.20;;
38611;SDS011;24368;52.156;20.788;2023-03-15T19:10:38;21.20;;;13.20;;
38611;SDS011;24368;52.156;20.788;2023-03-15T19:15:40;27.10;;;15.90;;
38611;SDS011;24368;52.156;20.788;2023-03-15T19:20:42;26.30;;;14.50;;
38611;SDS011;24368;52.156;20.788;2023-03-15T19:25:44;24.10;;;15.50;;
38611;SDS011;24368;52.156;20.788;2023-03-15T19:30:46;23.10;;;15.50;;
38611;SDS011;24368;52.156;20.788;2023-03-15T19:35:49;21.40;;;14.00;;
38611;SDS011;24368;52.156;20.788;2023-03-15T19:40:51;24.00;;;15.10;;
38611;SDS011;24368;52.156;20.788;2023-03-15T19:45:55;19.50;;;13.40;;
38611;SDS011;24368;52.156;20.788;2023-03-15T19:50:57;21.70;;;14.10;;
38611;SDS011;24368;52.156;20.788;2023-03-15T19:56:03;19.80;;;14.20;;
38611;SDS011;24368;52.156;20.788;2023-03-15T20:06:17;23.00;;;15.70;;
38611;SDS011;24368;52.156;20.788;2023-03-15T20:11:19;23.20;;;15.50;;
38611;SDS011;24368;52.156;20.788;2023-03-15T20:16:25;20.00;;;13.10;;
38611;SDS011;24368;52.156;20.788;2023-03-15T20:21:35;27.30;;;19.10;;
38611;SDS011;24368;52.156;20.788;2023-03-15T20:26:37;31.70;;;20.50;;
38611;SDS011;24368;52.156;20.788;2023-03-15T20:31:39;39.10;;;23.10;;
38611;SDS011;24368;52.156;20.788;2023-03-15T20:36:41;35.80;;;24.00;;
38611;SDS011;24368;52.156;20.788;2023-03-15T20:41:43;53.40;;;32.40;;
38611;SDS011;24368;52.156;20.788;2023-03-15T20:46:45;36.30;;;23.40;;
38611;SDS011;24368;52.156;20.788;2023-03-15T20:51:47;34.70;;;23.30;;
38611;SDS011;24368;52.156;20.788;2023-03-15T20:56:49;35.50;;;22.70;;
38611;SDS011;24368;52.156;20.788;2023-03-15T21:01:54;39.00;;;26.20;;
38611;SDS011;24368;52.156;20.788;2023-03-15T21:06:56;41.50;;;28.90;;
38611;SDS011;24368;52.156;20.788;2023-03-15T21:12:07;38.70;;;24.60;;
38611;SDS011;24368;52.156;20.788;2023-03-15T21:17:09;45.90;;;26.70;;
38611;SDS011;24368;52.156;20.788;2023-03-15T21:22:12;42.40;;;26.50;;
38611;SDS011;24368;52.156;20.788;2023-03-15T21:27:14;41.90;;;26.70;;
38611;SDS011;24368;52.156;20.788;2023-03-15T21:32:17;45.20;;;25.50;;
38611;SDS011;24368;52.156;20.788;2023-03-15T21:37:18;39.20;;;24.90;;
38611;SDS011;24368;52.156;20.788;2023-03-15T21:42:20;37.20;;;25.80;;
38611;SDS011;24368;52.156;20.788;2023-03-15T21:47:22;39.00;;;24.00;;
38611;SDS011;24368;52.156;20.788;2023-03-15T21:52:24;34.30;;;22.60;;
38611;SDS011;24368;52.156;20.788;2023-03-15T21:57:26;35.70;;;19.70;;
38611;SDS011;24368;52.156;20.788;2023-03-15T22:02:28;33.10;;;19.90;;
38611;SDS011;24368;52.156;20.788;2023-03-15T22:07:30;30.40;;;19.50;;
38611;SDS011;24368;52.156;20.788;2023-03-15T22:12:32;37.10;;;22.20;;
38611;SDS011;24368;52.156;20.788;2023-03-15T22:17:34;30.70;;;20.40;;
38611;SDS011;24368;52.156;20.788;2023-03-15T22:22:36;33.70;;;20.10;;
38611;SDS011;24368;52.156;20.788;2023-03-15T22:27:38;33.80;;;21.80;;
38611;SDS011;24368;52.156;20.788;2023-03-15T22:32:42;31.30;;;20.00;;
38611;SDS011;24368;52.156;20.788;2023-03-15T22:37:44;33.60;;;19.80;;
38611;SDS011;24368;52.156;20.788;2023-03-15T22:42:46;33.30;;;19.90;;
38611;SDS011;24368;52.156;20.788;2023-03-15T22:47:49;30.80;;;18.80;;
38611;SDS011;24368;52.156;20.788;2023-03-15T22:52:51;25.80;;;16.90;;
38611;SDS011;24368;52.156;20.788;2023-03-15T22:57:55;26.10;;;18.70;;
38611;SDS011;24368;52.156;20.788;2023-03-15T23:02:57;29.00;;;17.80;;
38611;SDS011;24368;52.156;20.788;2023-03-15T23:07:59;27.70;;;17.80;;
38611;SDS011;24368;52.156;20.788;2023-03-15T23:13:01;26.20;;;17.60;;
38611;SDS011;24368;52.156;20.788;2023-03-15T23:18:03;27.70;;;16.60;;
38611;SDS011;24368;52.156;20.788;2023-03-15T23:23:06;27.90;;;16.70;;
38611;SDS011;24368;52.156;20.788;2023-03-15T23:28:08;30.30;;;17.20;;
38611;SDS011;24368;52.156;20.788;2023-03-15T23:33:10;24.10;;;16.40;;
38611;SDS011;24368;52.156;20.788;2023-03-15T23:38:12;22.60;;;16.40;;
38611;SDS011;24368;52.156;20.788;2023-03-15T23:43:13;30.80;;;18.90;;
38611;SDS011;24368;52.156;20.788;2023-03-15T23:48:15;24.00;;;17.90;;
38611;SDS011;24368;52.156;20.788;2023-03-15T23:53:17;26.60;;;16.60;;
38611;SDS011;24368;52.156;20.788;2023-03-15T23:58:19;23.80;;;16.20;;
